Eaglescott Airfield


Codes: EGHU/
Name: Eaglescott Airfield
City: Burrington
Country: United Kingdom
Elevation: 655 ft.
Wikipedia:

Photos at Eaglescott Airfield


   Photos courtesy of SpottingLog. You can add your own sightings and photos by signing up for a free trial today.



No photos found.

Weather at Eaglescott Airfield


Time (UTC)DescriptionTempratureWindCloud coverageVisibilityPressureHumidity
26-Jun-2024 00:00Scattered Clouds14°C0 mph, N35%10000m1016hPa91%
26-Jun-2024 03:00Few Clouds14°C2 mph, N24%10000m1015hPa92%
26-Jun-2024 06:00Scattered Clouds17°C2 mph, SE40%10000m1014hPa87%
26-Jun-2024 09:00Light Rain20°C2 mph, S74%10000m1013hPa81%
26-Jun-2024 12:00Light Rain24°C9 mph, S61%10000m1012hPa67%
26-Jun-2024 15:00Light Rain22°C7 mph, SW97%10000m1011hPa74%
26-Jun-2024 18:00Light Rain18°C9 mph, W81%10000m1011hPa85%
26-Jun-2024 21:00Broken Clouds14°C4 mph, W68%10000m1011hPa98%
27-Jun-2024 00:00Broken Clouds12°C4 mph, S84%10000m1011hPa98%
27-Jun-2024 03:00Overcast Clouds12°C7 mph, SW100%2976m1009hPa99%
27-Jun-2024 06:00Overcast Clouds13°C9 mph, SW100%5085m1009hPa97%
27-Jun-2024 09:00Light Rain15°C16 mph, W91%10000m1010hPa73%
27-Jun-2024 12:00Overcast Clouds16°C18 mph, W91%10000m1011hPa64%
27-Jun-2024 15:00Light Rain15°C18 mph, W93%10000m1011hPa74%
27-Jun-2024 18:00Light Rain14°C18 mph, W55%10000m1012hPa83%
27-Jun-2024 21:00Light Rain11°C16 mph, W53%10000m1013hPa91%
28-Jun-2024 00:00Light Rain11°C16 mph, W70%10000m1014hPa94%
28-Jun-2024 03:00Light Rain10°C11 mph, W89%10000m1015hPa95%
28-Jun-2024 06:00Light Rain11°C9 mph, W95%10000m1017hPa91%
28-Jun-2024 09:00Broken Clouds14°C11 mph, W60%10000m1018hPa67%
28-Jun-2024 12:00Scattered Clouds16°C11 mph, W50%10000m1018hPa61%
28-Jun-2024 15:00Scattered Clouds16°C11 mph, W25%10000m1018hPa62%
28-Jun-2024 18:00Broken Clouds14°C9 mph, W54%10000m1018hPa71%
28-Jun-2024 21:00Overcast Clouds9°C4 mph, SW91%10000m1018hPa93%
29-Jun-2024 00:00Overcast Clouds9°C4 mph, SW95%10000m1017hPa94%
29-Jun-2024 03:00Overcast Clouds9°C7 mph, S100%10000m1015hPa96%
29-Jun-2024 06:00Overcast Clouds11°C4 mph, S100%10000m1014hPa90%
29-Jun-2024 09:00Overcast Clouds14°C9 mph, SW100%10000m1013hPa76%
29-Jun-2024 12:00Overcast Clouds16°C9 mph, SW100%10000m1011hPa75%
29-Jun-2024 15:00Overcast Clouds18°C9 mph, SW100%10000m1009hPa76%
29-Jun-2024 18:00Light Rain15°C9 mph, W100%10000m1008hPa92%
29-Jun-2024 21:00Light Rain14°C7 mph, SW97%10000m1007hPa96%
30-Jun-2024 00:00Light Rain14°C7 mph, SW98%6456m1006hPa98%
30-Jun-2024 03:00Overcast Clouds11°C9 mph, NW100%10000m1007hPa96%
30-Jun-2024 06:00Broken Clouds11°C9 mph, NW82%10000m1008hPa96%
30-Jun-2024 09:00Broken Clouds13°C16 mph, NW55%10000m1008hPa72%
30-Jun-2024 12:00Broken Clouds13°C13 mph, NW77%10000m1009hPa66%
30-Jun-2024 15:00Light Rain14°C16 mph, W96%10000m1009hPa72%
30-Jun-2024 18:00Light Rain13°C13 mph, W79%10000m1009hPa84%
30-Jun-2024 21:00Light Rain11°C11 mph, W95%10000m1010hPa88%